sensor_id;sensor_type;location;lat;lon;timestamp;pressure;altitude;pressure_sealevel;temperature;humidity
42859;BME280;28505;56.970;40.998;2022-07-04T00:01:44;99931.09;;;14.66;100.00
42859;BME280;28505;56.970;40.998;2022-07-04T00:12:47;99976.25;;;14.79;100.00
42859;BME280;28505;56.970;40.998;2022-07-04T00:29:53;100001.59;;;14.74;100.00
42859;BME280;28505;56.970;40.998;2022-07-04T00:35:15;99969.53;;;14.50;100.00
42859;BME280;28505;56.970;40.998;2022-07-04T00:41:14;100022.84;;;14.81;100.00
42859;BME280;28505;56.970;40.998;2022-07-04T00:46:55;100021.41;;;14.84;100.00
42859;BME280;28505;56.970;40.998;2022-07-04T00:52:53;99949.72;;;14.33;100.00
42859;BME280;28505;56.970;40.998;2022-07-04T00:58:34;99975.47;;;14.52;100.00
42859;BME280;28505;56.970;40.998;2022-07-04T01:04:14;100008.66;;;14.75;100.00
42859;BME280;28505;56.970;40.998;2022-07-04T01:09:56;100024.78;;;14.98;100.00
42859;BME280;28505;56.970;40.998;2022-07-04T01:15:18;100027.00;;;15.05;100.00
42859;BME280;28505;56.970;40.998;2022-07-04T01:20:40;100032.72;;;15.12;100.00
42859;BME280;28505;56.970;40.998;2022-07-04T01:31:46;100034.78;;;15.32;100.00
42859;BME280;28505;56.970;40.998;2022-07-04T01:43:08;100050.75;;;15.34;100.00
42859;BME280;28505;56.970;40.998;2022-07-04T01:48:48;100033.34;;;15.26;100.00
42859;BME280;28505;56.970;40.998;2022-07-04T01:54:48;100039.72;;;15.39;100.00
42859;BME280;28505;56.970;40.998;2022-07-04T02:00:11;100053.28;;;15.39;100.00
42859;BME280;28505;56.970;40.998;2022-07-04T02:11:32;100052.34;;;15.43;100.00
42859;BME280;28505;56.970;40.998;2022-07-04T02:18:09;100057.28;;;15.41;100.00
42859;BME280;28505;56.970;40.998;2022-07-04T02:23:31;100069.75;;;15.42;100.00
42859;BME280;28505;56.970;40.998;2022-07-04T02:29:29;100069.09;;;15.45;100.00
42859;BME280;28505;56.970;40.998;2022-07-04T02:34:51;100066.22;;;15.51;100.00
42859;BME280;28505;56.970;40.998;2022-07-04T02:40:50;100077.38;;;15.58;100.00
42859;BME280;28505;56.970;40.998;2022-07-04T02:46:29;100080.41;;;15.65;100.00
42859;BME280;28505;56.970;40.998;2022-07-04T02:52:29;100083.94;;;15.74;100.00
42859;BME280;28505;56.970;40.998;2022-07-04T03:09:32;100090.84;;;16.10;100.00
42859;BME280;28505;56.970;40.998;2022-07-04T03:14:54;100089.47;;;16.25;100.00
42859;BME280;28505;56.970;40.998;2022-07-04T03:20:35;100096.16;;;16.36;100.00
42859;BME280;28505;56.970;40.998;2022-07-04T03:25:57;100060.38;;;16.25;100.00
42859;BME280;28505;56.970;40.998;2022-07-04T03:31:57;100095.53;;;16.60;100.00
42859;BME280;28505;56.970;40.998;2022-07-04T03:37:38;100100.69;;;16.74;100.00
42859;BME280;28505;56.970;40.998;2022-07-04T03:43:18;100096.63;;;16.89;100.00
42859;BME280;28505;56.970;40.998;2022-07-04T03:49:18;100089.06;;;16.94;100.00
42859;BME280;28505;56.970;40.998;2022-07-04T04:00:39;100114.59;;;17.44;100.00
42859;BME280;28505;56.970;40.998;2022-07-04T04:06:20;100077.31;;;17.36;100.00
42859;BME280;28505;56.970;40.998;2022-07-04T04:12:11;100113.88;;;17.68;100.00
42859;BME280;28505;56.970;40.998;2022-07-04T04:17:36;100044.75;;;17.39;100.00
42859;BME280;28505;56.970;40.998;2022-07-04T04:29:53;100052.72;;;17.90;100.00
42859;BME280;28505;56.970;40.998;2022-07-04T05:06:10;100071.53;;;24.43;80.53
42859;BME280;28505;56.970;40.998;2022-07-04T05:18:01;100122.91;;;25.81;72.53
42859;BME280;28505;56.970;40.998;2022-07-04T05:29:06;100118.91;;;25.57;69.51
42859;BME280;28505;56.970;40.998;2022-07-04T05:35:04;100100.38;;;25.72;66.73
42859;BME280;28505;56.970;40.998;2022-07-04T05:47:02;100111.78;;;25.45;68.10
42859;BME280;28505;56.970;40.998;2022-07-04T05:52:24;100116.16;;;25.57;68.20
42859;BME280;28505;56.970;40.998;2022-07-04T07:10:54;100094.44;;;25.63;61.21
42859;BME280;28505;56.970;40.998;2022-07-04T07:16:56;100090.91;;;25.59;63.70
42859;BME280;28505;56.970;40.998;2022-07-04T07:28:21;100094.50;;;26.38;63.67
42859;BME280;28505;56.970;40.998;2022-07-04T07:34:02;100086.56;;;26.69;63.19
42859;BME280;28505;56.970;40.998;2022-07-04T07:39:43;100081.78;;;26.80;62.16
42859;BME280;28505;56.970;40.998;2022-07-04T07:45:23;100092.88;;;26.69;60.56
42859;BME280;28505;56.970;40.998;2022-07-04T07:51:03;100077.91;;;26.59;60.03
42859;BME280;28505;56.970;40.998;2022-07-04T07:57:03;100097.63;;;26.47;55.59
42859;BME280;28505;56.970;40.998;2022-07-04T08:02:44;100098.84;;;26.25;57.20
42859;BME280;28505;56.970;40.998;2022-07-04T08:08:25;100078.69;;;26.35;58.71
42859;BME280;28505;56.970;40.998;2022-07-04T08:14:03;100100.03;;;26.52;57.69
42859;BME280;28505;56.970;40.998;2022-07-04T08:19:53;100057.81;;;26.27;56.78
42859;BME280;28505;56.970;40.998;2022-07-04T08:37:44;100017.47;;;26.47;57.07
42859;BME280;28505;56.970;40.998;2022-07-04T08:55:48;100068.28;;;26.96;56.50
42859;BME280;28505;56.970;40.998;2022-07-04T09:07:41;100013.81;;;26.82;56.63
42859;BME280;28505;56.970;40.998;2022-07-04T09:13:40;100075.31;;;27.19;55.11
42859;BME280;28505;56.970;40.998;2022-07-04T09:19:02;100061.16;;;26.99;54.52
42859;BME280;28505;56.970;40.998;2022-07-04T09:24:44;100070.72;;;26.80;53.37
42859;BME280;28505;56.970;40.998;2022-07-04T09:30:08;100066.41;;;26.75;54.74
42859;BME280;28505;56.970;40.998;2022-07-04T09:35:32;100051.75;;;26.82;54.59
42859;BME280;28505;56.970;40.998;2022-07-04T09:40:55;100052.44;;;27.00;53.12
42859;BME280;28505;56.970;40.998;2022-07-04T09:46:58;100063.47;;;27.07;51.84
42859;BME280;28505;56.970;40.998;2022-07-04T09:52:20;100056.38;;;27.03;51.46
42859;BME280;28505;56.970;40.998;2022-07-04T10:10:25;100044.59;;;26.95;52.33
42859;BME280;28505;56.970;40.998;2022-07-04T10:16:06;100048.88;;;27.14;53.74
42859;BME280;28505;56.970;40.998;2022-07-04T10:21:33;100047.66;;;27.19;52.79
42859;BME280;28505;56.970;40.998;2022-07-04T10:26:56;100033.38;;;27.24;52.52
42859;BME280;28505;56.970;40.998;2022-07-04T10:32:18;100040.88;;;27.23;53.78
42859;BME280;28505;56.970;40.998;2022-07-04T10:38:00;100035.00;;;27.18;53.13
42859;BME280;28505;56.970;40.998;2022-07-04T10:49:31;100025.56;;;27.04;52.20
42859;BME280;28505;56.970;40.998;2022-07-04T10:54:53;100012.56;;;26.98;52.08
42859;BME280;28505;56.970;40.998;2022-07-04T11:12:02;100015.25;;;27.16;52.06
42859;BME280;28505;56.970;40.998;2022-07-04T11:17:46;100014.81;;;27.17;52.26
42859;BME280;28505;56.970;40.998;2022-07-04T11:23:49;100002.97;;;27.17;52.00
42859;BME280;28505;56.970;40.998;2022-07-04T11:29:30;99991.53;;;27.07;52.01
42859;BME280;28505;56.970;40.998;2022-07-04T11:35:11;99997.06;;;27.15;53.34
42859;BME280;28505;56.970;40.998;2022-07-04T11:40:52;99999.50;;;27.02;51.17
42859;BME280;28505;56.970;40.998;2022-07-04T11:46:33;99991.63;;;26.90;51.87
42859;BME280;28505;56.970;40.998;2022-07-04T12:03:19;99967.13;;;26.92;50.74
42859;BME280;28505;56.970;40.998;2022-07-04T12:09:00;99986.44;;;27.02;51.15
42859;BME280;28505;56.970;40.998;2022-07-04T12:51:15;99925.75;;;26.70;51.15
42859;BME280;28505;56.970;40.998;2022-07-04T13:08:50;99899.03;;;26.35;49.95
42859;BME280;28505;56.970;40.998;2022-07-04T13:14:30;99941.16;;;26.71;50.09
42859;BME280;28505;56.970;40.998;2022-07-04T13:19:53;99948.31;;;26.69;48.89
42859;BME280;28505;56.970;40.998;2022-07-04T13:25:53;99942.78;;;26.65;48.86
42859;BME280;28505;56.970;40.998;2022-07-04T13:31:33;99936.47;;;26.61;49.11
42859;BME280;28505;56.970;40.998;2022-07-04T13:37:17;99931.75;;;26.58;49.77
42859;BME280;28505;56.970;40.998;2022-07-04T13:55:32;99938.53;;;26.43;48.80
42859;BME280;28505;56.970;40.998;2022-07-04T14:07:18;99935.84;;;26.18;49.43
42859;BME280;28505;56.970;40.998;2022-07-04T14:12:40;99945.31;;;26.09;49.47
42859;BME280;28505;56.970;40.998;2022-07-04T14:18:21;99952.06;;;26.01;49.73
42859;BME280;28505;56.970;40.998;2022-07-04T14:23:44;99955.63;;;25.98;50.06
42859;BME280;28505;56.970;40.998;2022-07-04T14:29:42;99936.69;;;25.93;50.44
42859;BME280;28505;56.970;40.998;2022-07-04T14:35:42;99942.22;;;25.82;50.33
42859;BME280;28505;56.970;40.998;2022-07-04T14:41:23;99936.28;;;25.73;50.86
42859;BME280;28505;56.970;40.998;2022-07-04T14:46:46;99936.31;;;25.62;50.25
42859;BME280;28505;56.970;40.998;2022-07-04T14:52:25;99937.50;;;25.54;50.74
42859;BME280;28505;56.970;40.998;2022-07-04T14:58:06;99930.41;;;25.39;50.44
42859;BME280;28505;56.970;40.998;2022-07-04T15:04:05;99932.78;;;25.26;50.66
42859;BME280;28505;56.970;40.998;2022-07-04T15:16:21;99889.72;;;24.79;50.26
42859;BME280;28505;56.970;40.998;2022-07-04T15:47:26;99911.25;;;24.34;53.07
42859;BME280;28505;56.970;40.998;2022-07-04T15:52:51;99853.56;;;23.86;52.98
42859;BME280;28505;56.970;40.998;2022-07-04T15:59:12;99915.88;;;24.15;53.33
42859;BME280;28505;56.970;40.998;2022-07-04T16:11:29;99916.44;;;23.76;54.68
42859;BME280;28505;56.970;40.998;2022-07-04T16:16:51;99922.63;;;23.66;54.94
42859;BME280;28505;56.970;40.998;2022-07-04T16:22:31;99920.94;;;23.51;55.37
42859;BME280;28505;56.970;40.998;2022-07-04T16:33:34;99917.22;;;23.25;55.80
42859;BME280;28505;56.970;40.998;2022-07-04T16:45:31;99920.78;;;22.92;56.60
42859;BME280;28505;56.970;40.998;2022-07-04T16:51:14;99930.41;;;22.75;56.95
42859;BME280;28505;56.970;40.998;2022-07-04T16:57:13;99933.34;;;22.56;57.54
42859;BME280;28505;56.970;40.998;2022-07-04T17:03:13;99931.22;;;22.42;57.84
42859;BME280;28505;56.970;40.998;2022-07-04T17:32:03;99954.84;;;21.67;61.00
42859;BME280;28505;56.970;40.998;2022-07-04T17:37:45;99945.63;;;21.52;61.59
42859;BME280;28505;56.970;40.998;2022-07-04T17:43:07;99958.34;;;21.41;62.06
42859;BME280;28505;56.970;40.998;2022-07-04T17:48:46;99956.97;;;21.31;62.68
42859;BME280;28505;56.970;40.998;2022-07-04T17:54:26;99962.94;;;21.14;63.28
42859;BME280;28505;56.970;40.998;2022-07-04T18:00:27;99969.19;;;20.91;64.22
42859;BME280;28505;56.970;40.998;2022-07-04T18:18:09;99971.72;;;20.26;67.48
42859;BME280;28505;56.970;40.998;2022-07-04T18:23:32;99992.44;;;20.07;68.19
42859;BME280;28505;56.970;40.998;2022-07-04T18:29:31;99988.75;;;19.84;69.20
42859;BME280;28505;56.970;40.998;2022-07-04T18:35:29;99984.13;;;19.69;70.36
42859;BME280;28505;56.970;40.998;2022-07-04T18:47:10;99988.13;;;19.43;71.59
42859;BME280;28505;56.970;40.998;2022-07-04T18:53:10;100000.47;;;19.37;72.36
42859;BME280;28505;56.970;40.998;2022-07-04T19:04:14;99993.59;;;18.99;74.30
42859;BME280;28505;56.970;40.998;2022-07-04T19:22:05;99953.69;;;18.14;76.47
42859;BME280;28505;56.970;40.998;2022-07-04T19:27:29;99974.50;;;18.18;77.48
42859;BME280;28505;56.970;40.998;2022-07-04T19:33:09;99998.47;;;18.25;78.07
42859;BME280;28505;56.970;40.998;2022-07-04T19:38:51;100011.19;;;18.21;78.66
42859;BME280;28505;56.970;40.998;2022-07-04T19:44:14;99960.56;;;17.83;78.95
42859;BME280;28505;56.970;40.998;2022-07-04T19:49:38;99960.06;;;17.57;80.11
42859;BME280;28505;56.970;40.998;2022-07-04T19:55:12;99961.72;;;17.24;80.66
42859;BME280;28505;56.970;40.998;2022-07-04T20:01:12;99989.53;;;17.18;82.35
42859;BME280;28505;56.970;40.998;2022-07-04T20:06:53;99955.97;;;16.93;83.09
42859;BME280;28505;56.970;40.998;2022-07-04T20:12:18;100032.56;;;17.24;83.75
42859;BME280;28505;56.970;40.998;2022-07-04T20:17:59;100026.81;;;17.05;84.97
42859;BME280;28505;56.970;40.998;2022-07-04T20:23:57;100027.13;;;17.03;84.97
42859;BME280;28505;56.970;40.998;2022-07-04T20:29:38;100030.25;;;16.81;86.24
42859;BME280;28505;56.970;40.998;2022-07-04T20:35:09;100028.75;;;16.83;86.53
42859;BME280;28505;56.970;40.998;2022-07-04T20:40:31;100030.59;;;16.71;87.31
42859;BME280;28505;56.970;40.998;2022-07-04T20:46:12;100033.41;;;16.62;87.99
42859;BME280;28505;56.970;40.998;2022-07-04T20:51:53;100035.50;;;16.56;87.49
42859;BME280;28505;56.970;40.998;2022-07-04T20:57:51;100023.47;;;16.36;87.56
42859;BME280;28505;56.970;40.998;2022-07-04T21:03:14;100009.78;;;16.24;88.03
42859;BME280;28505;56.970;40.998;2022-07-04T21:08:54;100041.59;;;16.32;88.80
42859;BME280;28505;56.970;40.998;2022-07-04T21:14:53;100037.34;;;16.23;89.74
42859;BME280;28505;56.970;40.998;2022-07-04T21:20:16;100014.38;;;15.73;90.88
42859;BME280;28505;56.970;40.998;2022-07-04T21:25:57;99988.56;;;15.41;92.48
42859;BME280;28505;56.970;40.998;2022-07-04T21:31:37;100001.69;;;15.39;93.47
42859;BME280;28505;56.970;40.998;2022-07-04T21:37:18;100034.72;;;15.67;93.50
42859;BME280;28505;56.970;40.998;2022-07-04T21:42:58;99984.81;;;15.16;93.19
42859;BME280;28505;56.970;40.998;2022-07-04T21:48:39;100044.19;;;15.43;93.18
42859;BME280;28505;56.970;40.998;2022-07-04T21:54:20;100023.78;;;15.11;93.92
42859;BME280;28505;56.970;40.998;2022-07-04T22:17:42;100024.91;;;14.84;95.50
42859;BME280;28505;56.970;40.998;2022-07-04T22:23:22;100055.41;;;14.81;96.29
42859;BME280;28505;56.970;40.998;2022-07-04T22:28:45;100040.44;;;14.75;97.37
42859;BME280;28505;56.970;40.998;2022-07-04T22:34:26;100033.84;;;14.67;97.42
42859;BME280;28505;56.970;40.998;2022-07-04T22:40:06;100045.19;;;14.61;97.98
42859;BME280;28505;56.970;40.998;2022-07-04T22:45:48;100043.75;;;14.55;98.57
42859;BME280;28505;56.970;40.998;2022-07-04T22:57:45;100053.72;;;14.28;100.00
